sensor_id;sensor_type;location;lat;lon;timestamp;pressure;altitude;pressure_sealevel;temperature;humidity
61394;BME280;48555;50.952;-0.120;2023-04-16T00:01:46;102059.13;;;11.09;71.13
61394;BME280;48555;50.952;-0.120;2023-04-16T00:04:12;102061.06;;;11.06;71.31
61394;BME280;48555;50.952;-0.120;2023-04-16T00:06:37;102054.41;;;11.00;71.46
61394;BME280;48555;50.952;-0.120;2023-04-16T00:09:02;102049.44;;;10.94;71.62
61394;BME280;48555;50.952;-0.120;2023-04-16T00:11:28;102058.25;;;10.93;71.58
61394;BME280;48555;50.952;-0.120;2023-04-16T00:13:53;102059.91;;;10.94;71.79
61394;BME280;48555;50.952;-0.120;2023-04-16T00:16:19;102059.91;;;10.94;71.67
61394;BME280;48555;50.952;-0.120;2023-04-16T00:18:44;102059.00;;;10.95;71.71
61394;BME280;48555;50.952;-0.120;2023-04-16T00:21:10;102053.09;;;10.91;71.83
61394;BME280;48555;50.952;-0.120;2023-04-16T00:23:36;102057.22;;;10.96;72.11
61394;BME280;48555;50.952;-0.120;2023-04-16T00:26:02;102051.84;;;10.99;72.19
61394;BME280;48555;50.952;-0.120;2023-04-16T00:28:27;102053.53;;;11.00;72.00
61394;BME280;48555;50.952;-0.120;2023-04-16T00:30:53;102052.53;;;11.02;72.34
61394;BME280;48555;50.952;-0.120;2023-04-16T00:33:18;102057.75;;;11.02;72.21
61394;BME280;48555;50.952;-0.120;2023-04-16T00:35:45;102053.44;;;11.01;72.57
61394;BME280;48555;50.952;-0.120;2023-04-16T00:38:10;102059.53;;;11.02;72.64
61394;BME280;48555;50.952;-0.120;2023-04-16T00:40:36;102057.59;;;11.05;72.65
61394;BME280;48555;50.952;-0.120;2023-04-16T00:43:02;102048.06;;;11.04;72.90
61394;BME280;48555;50.952;-0.120;2023-04-16T00:45:27;102053.13;;;11.07;72.91
61394;BME280;48555;50.952;-0.120;2023-04-16T00:47:53;102054.91;;;11.07;73.10
61394;BME280;48555;50.952;-0.120;2023-04-16T00:50:18;102049.66;;;11.07;73.06
61394;BME280;48555;50.952;-0.120;2023-04-16T00:52:46;102043.81;;;11.02;73.27
61394;BME280;48555;50.952;-0.120;2023-04-16T00:55:11;102056.75;;;11.05;73.07
61394;BME280;48555;50.952;-0.120;2023-04-16T00:57:38;102053.28;;;11.04;73.41
61394;BME280;48555;50.952;-0.120;2023-04-16T01:00:04;102051.50;;;11.05;73.46
61394;BME280;48555;50.952;-0.120;2023-04-16T01:02:29;102050.75;;;11.03;73.60
61394;BME280;48555;50.952;-0.120;2023-04-16T01:04:55;102049.16;;;11.00;73.37
61394;BME280;48555;50.952;-0.120;2023-04-16T01:07:20;102046.00;;;10.94;73.90
61394;BME280;48555;50.952;-0.120;2023-04-16T01:09:46;102050.72;;;10.87;74.12
61394;BME280;48555;50.952;-0.120;2023-04-16T01:12:11;102042.50;;;10.77;74.24
61394;BME280;48555;50.952;-0.120;2023-04-16T01:14:36;102039.78;;;10.79;74.62
61394;BME280;48555;50.952;-0.120;2023-04-16T01:17:02;102050.19;;;10.80;74.52
61394;BME280;48555;50.952;-0.120;2023-04-16T01:19:29;102036.09;;;10.83;74.77
61394;BME280;48555;50.952;-0.120;2023-04-16T01:22:00;102037.84;;;10.82;74.87
61394;BME280;48555;50.952;-0.120;2023-04-16T01:24:26;102036.78;;;10.86;75.00
61394;BME280;48555;50.952;-0.120;2023-04-16T01:26:51;102039.47;;;10.85;74.73
61394;BME280;48555;50.952;-0.120;2023-04-16T01:29:17;102043.84;;;10.84;74.75
61394;BME280;48555;50.952;-0.120;2023-04-16T01:31:42;102047.56;;;10.80;74.81
61394;BME280;48555;50.952;-0.120;2023-04-16T01:34:07;102047.78;;;10.76;74.87
61394;BME280;48555;50.952;-0.120;2023-04-16T01:36:33;102042.03;;;10.69;75.30
61394;BME280;48555;50.952;-0.120;2023-04-16T01:38:58;102049.22;;;10.65;75.28
61394;BME280;48555;50.952;-0.120;2023-04-16T01:41:23;102046.91;;;10.59;75.30
61394;BME280;48555;50.952;-0.120;2023-04-16T01:43:49;102041.69;;;10.59;75.50
61394;BME280;48555;50.952;-0.120;2023-04-16T01:46:19;102044.19;;;10.61;75.26
61394;BME280;48555;50.952;-0.120;2023-04-16T01:48:47;102039.50;;;10.67;75.19
61394;BME280;48555;50.952;-0.120;2023-04-16T01:51:13;102043.72;;;10.70;75.02
61394;BME280;48555;50.952;-0.120;2023-04-16T01:53:38;102044.50;;;10.72;74.86
61394;BME280;48555;50.952;-0.120;2023-04-16T01:56:04;102043.72;;;10.70;74.85
61394;BME280;48555;50.952;-0.120;2023-04-16T01:58:31;102043.97;;;10.65;74.75
61394;BME280;48555;50.952;-0.120;2023-04-16T02:00:57;102041.09;;;10.70;74.75
61394;BME280;48555;50.952;-0.120;2023-04-16T02:03:22;102041.03;;;10.72;74.79
61394;BME280;48555;50.952;-0.120;2023-04-16T02:05:49;102039.25;;;10.72;74.94
61394;BME280;48555;50.952;-0.120;2023-04-16T02:08:15;102042.72;;;10.73;74.90
61394;BME280;48555;50.952;-0.120;2023-04-16T02:10:40;102040.09;;;10.73;74.74
61394;BME280;48555;50.952;-0.120;2023-04-16T02:13:06;102015.69;;;10.56;74.64
61394;BME280;48555;50.952;-0.120;2023-04-16T02:15:31;102033.66;;;10.62;74.77
61394;BME280;48555;50.952;-0.120;2023-04-16T02:17:56;102033.06;;;10.57;74.54
61394;BME280;48555;50.952;-0.120;2023-04-16T02:20:22;102030.66;;;10.53;74.89
61394;BME280;48555;50.952;-0.120;2023-04-16T02:22:47;102022.28;;;10.46;74.82
61394;BME280;48555;50.952;-0.120;2023-04-16T02:25:13;102032.13;;;10.41;74.98
61394;BME280;48555;50.952;-0.120;2023-04-16T02:27:38;102026.31;;;10.36;75.17
61394;BME280;48555;50.952;-0.120;2023-04-16T02:30:04;102027.22;;;10.35;74.84
61394;BME280;48555;50.952;-0.120;2023-04-16T02:32:30;102030.59;;;10.37;74.96
61394;BME280;48555;50.952;-0.120;2023-04-16T02:34:55;102036.66;;;10.37;74.84
61394;BME280;48555;50.952;-0.120;2023-04-16T02:37:21;102023.13;;;10.29;74.96
61394;BME280;48555;50.952;-0.120;2023-04-16T02:39:47;102028.97;;;10.34;74.79
61394;BME280;48555;50.952;-0.120;2023-04-16T02:42:14;102031.53;;;10.36;74.88
61394;BME280;48555;50.952;-0.120;2023-04-16T02:44:40;102027.47;;;10.30;74.99
61394;BME280;48555;50.952;-0.120;2023-04-16T02:47:05;102028.97;;;10.34;74.88
61394;BME280;48555;50.952;-0.120;2023-04-16T02:49:31;102022.97;;;10.32;74.63
61394;BME280;48555;50.952;-0.120;2023-04-16T02:51:56;102030.81;;;10.32;74.64
61394;BME280;48555;50.952;-0.120;2023-04-16T02:54:22;102039.44;;;10.34;74.88
61394;BME280;48555;50.952;-0.120;2023-04-16T02:56:47;102026.53;;;10.31;74.72
61394;BME280;48555;50.952;-0.120;2023-04-16T02:59:12;102024.59;;;10.35;75.09
61394;BME280;48555;50.952;-0.120;2023-04-16T03:01:37;102024.75;;;10.32;75.01
61394;BME280;48555;50.952;-0.120;2023-04-16T03:04:03;102019.66;;;10.29;75.39
61394;BME280;48555;50.952;-0.120;2023-04-16T03:06:28;102024.19;;;10.25;75.27
61394;BME280;48555;50.952;-0.120;2023-04-16T03:08:54;102030.25;;;10.26;75.70
61394;BME280;48555;50.952;-0.120;2023-04-16T03:11:19;102019.09;;;10.22;75.59
61394;BME280;48555;50.952;-0.120;2023-04-16T03:13:45;102027.59;;;10.27;75.63
61394;BME280;48555;50.952;-0.120;2023-04-16T03:16:10;102018.00;;;10.28;75.50
61394;BME280;48555;50.952;-0.120;2023-04-16T03:18:35;102028.34;;;10.29;75.60
61394;BME280;48555;50.952;-0.120;2023-04-16T03:21:01;102022.50;;;10.24;75.67
61394;BME280;48555;50.952;-0.120;2023-04-16T03:23:26;102031.06;;;10.28;75.63
61394;BME280;48555;50.952;-0.120;2023-04-16T03:25:52;102028.47;;;10.26;75.89
61394;BME280;48555;50.952;-0.120;2023-04-16T03:28:17;102034.63;;;10.25;75.90
61394;BME280;48555;50.952;-0.120;2023-04-16T03:30:49;102032.97;;;10.24;76.07
61394;BME280;48555;50.952;-0.120;2023-04-16T03:33:14;102030.41;;;10.22;76.15
61394;BME280;48555;50.952;-0.120;2023-04-16T03:35:40;102030.50;;;10.21;75.98
61394;BME280;48555;50.952;-0.120;2023-04-16T03:38:05;102021.09;;;10.17;76.23
61394;BME280;48555;50.952;-0.120;2023-04-16T03:40:30;102028.25;;;10.13;76.17
61394;BME280;48555;50.952;-0.120;2023-04-16T03:42:56;102023.13;;;10.12;76.69
61394;BME280;48555;50.952;-0.120;2023-04-16T03:45:21;102017.94;;;10.10;76.51
61394;BME280;48555;50.952;-0.120;2023-04-16T03:47:46;102029.88;;;10.16;76.69
61394;BME280;48555;50.952;-0.120;2023-04-16T03:50:17;102019.56;;;10.13;76.49
61394;BME280;48555;50.952;-0.120;2023-04-16T03:52:42;102027.94;;;10.19;76.61
61394;BME280;48555;50.952;-0.120;2023-04-16T03:55:08;102027.09;;;10.19;76.76
61394;BME280;48555;50.952;-0.120;2023-04-16T03:57:34;102023.66;;;10.18;77.02
61394;BME280;48555;50.952;-0.120;2023-04-16T03:59:59;102016.84;;;10.14;77.01
61394;BME280;48555;50.952;-0.120;2023-04-16T04:02:25;102017.78;;;10.13;77.08
61394;BME280;48555;50.952;-0.120;2023-04-16T04:04:51;102017.88;;;10.12;77.34
61394;BME280;48555;50.952;-0.120;2023-04-16T04:07:16;102017.00;;;10.11;77.33
61394;BME280;48555;50.952;-0.120;2023-04-16T04:09:41;102018.63;;;10.14;77.40
61394;BME280;48555;50.952;-0.120;2023-04-16T04:12:07;102023.88;;;10.14;77.30
61394;BME280;48555;50.952;-0.120;2023-04-16T04:14:34;102018.47;;;10.17;77.26
61394;BME280;48555;50.952;-0.120;2023-04-16T04:17:04;102022.81;;;10.18;77.43
61394;BME280;48555;50.952;-0.120;2023-04-16T04:19:29;102024.50;;;10.19;77.23
61394;BME280;48555;50.952;-0.120;2023-04-16T04:21:55;102021.88;;;10.19;77.46
61394;BME280;48555;50.952;-0.120;2023-04-16T04:24:20;102023.66;;;10.18;77.56
61394;BME280;48555;50.952;-0.120;2023-04-16T04:26:45;102018.31;;;10.20;77.33
61394;BME280;48555;50.952;-0.120;2023-04-16T04:29:11;102017.59;;;10.18;77.19
61394;BME280;48555;50.952;-0.120;2023-04-16T04:31:36;102018.41;;;10.18;77.38
61394;BME280;48555;50.952;-0.120;2023-04-16T04:34:01;102026.16;;;10.20;77.38
61394;BME280;48555;50.952;-0.120;2023-04-16T04:36:27;102021.78;;;10.20;77.44
61394;BME280;48555;50.952;-0.120;2023-04-16T04:38:52;102019.09;;;10.22;77.85
61394;BME280;48555;50.952;-0.120;2023-04-16T04:41:18;102019.94;;;10.22;77.78
61394;BME280;48555;50.952;-0.120;2023-04-16T04:43:43;102013.88;;;10.22;77.80
61394;BME280;48555;50.952;-0.120;2023-04-16T04:46:08;102022.38;;;10.27;77.67
61394;BME280;48555;50.952;-0.120;2023-04-16T04:48:34;102019.66;;;10.29;77.80
61394;BME280;48555;50.952;-0.120;2023-04-16T04:50:59;102020.59;;;10.28;77.83
61394;BME280;48555;50.952;-0.120;2023-04-16T04:53:25;102024.84;;;10.30;77.83
61394;BME280;48555;50.952;-0.120;2023-04-16T04:55:50;102036.13;;;10.31;77.62
61394;BME280;48555;50.952;-0.120;2023-04-16T04:58:16;102029.22;;;10.30;78.00
61394;BME280;48555;50.952;-0.120;2023-04-16T05:00:41;102025.75;;;10.29;77.92
61394;BME280;48555;50.952;-0.120;2023-04-16T05:03:09;102035.34;;;10.29;77.97
61394;BME280;48555;50.952;-0.120;2023-04-16T05:05:35;102034.59;;;10.27;78.08
61394;BME280;48555;50.952;-0.120;2023-04-16T05:08:00;102036.31;;;10.26;77.97
61394;BME280;48555;50.952;-0.120;2023-04-16T05:10:26;102032.03;;;10.25;78.19
61394;BME280;48555;50.952;-0.120;2023-04-16T05:12:52;102033.84;;;10.23;78.44
61394;BME280;48555;50.952;-0.120;2023-04-16T05:15:17;102037.56;;;10.19;78.54
61394;BME280;48555;50.952;-0.120;2023-04-16T05:17:42;102035.00;;;10.17;78.45
61394;BME280;48555;50.952;-0.120;2023-04-16T05:20:08;102045.41;;;10.19;78.77
61394;BME280;48555;50.952;-0.120;2023-04-16T05:22:34;102043.88;;;10.15;78.67
61394;BME280;48555;50.952;-0.120;2023-04-16T05:24:59;102040.53;;;10.11;78.62
61394;BME280;48555;50.952;-0.120;2023-04-16T05:27:24;102044.63;;;10.17;78.97
61394;BME280;48555;50.952;-0.120;2023-04-16T05:29:50;102054.94;;;10.20;78.89
61394;BME280;48555;50.952;-0.120;2023-04-16T05:32:15;102045.31;;;10.20;79.07
61394;BME280;48555;50.952;-0.120;2023-04-16T05:34:40;102052.25;;;10.21;78.71
61394;BME280;48555;50.952;-0.120;2023-04-16T05:37:06;102054.88;;;10.21;79.05
61394;BME280;48555;50.952;-0.120;2023-04-16T05:39:31;102048.06;;;10.17;78.99
61394;BME280;48555;50.952;-0.120;2023-04-16T05:41:56;102053.09;;;10.22;79.44
61394;BME280;48555;50.952;-0.120;2023-04-16T05:44:22;102047.72;;;10.25;79.23
61394;BME280;48555;50.952;-0.120;2023-04-16T05:46:47;102051.13;;;10.27;79.40
61394;BME280;48555;50.952;-0.120;2023-04-16T05:49:12;102051.03;;;10.29;79.47
61394;BME280;48555;50.952;-0.120;2023-04-16T05:51:38;102051.72;;;10.32;79.18
61394;BME280;48555;50.952;-0.120;2023-04-16T05:54:03;102053.44;;;10.33;79.55
61394;BME280;48555;50.952;-0.120;2023-04-16T05:56:28;102061.03;;;10.38;79.48
61394;BME280;48555;50.952;-0.120;2023-04-16T05:58:54;102046.28;;;10.37;79.46
61394;BME280;48555;50.952;-0.120;2023-04-16T06:01:20;102053.81;;;10.43;79.71
61394;BME280;48555;50.952;-0.120;2023-04-16T06:03:46;102052.66;;;10.49;79.71
61394;BME280;48555;50.952;-0.120;2023-04-16T06:06:11;102054.97;;;10.55;79.69
61394;BME280;48555;50.952;-0.120;2023-04-16T06:08:37;102055.66;;;10.58;79.33
61394;BME280;48555;50.952;-0.120;2023-04-16T06:11:02;102055.19;;;10.67;79.72
61394;BME280;48555;50.952;-0.120;2023-04-16T06:13:28;102059.19;;;10.75;79.40
61394;BME280;48555;50.952;-0.120;2023-04-16T06:15:53;102060.66;;;10.80;79.46
61394;BME280;48555;50.952;-0.120;2023-04-16T06:18:18;102059.56;;;10.84;79.51
61394;BME280;48555;50.952;-0.120;2023-04-16T06:20:44;102064.56;;;10.89;79.65
61394;BME280;48555;50.952;-0.120;2023-04-16T06:23:09;102063.72;;;10.88;79.60
61394;BME280;48555;50.952;-0.120;2023-04-16T06:25:34;102064.31;;;10.94;79.65
61394;BME280;48555;50.952;-0.120;2023-04-16T06:28:00;102065.03;;;10.97;79.48
61394;BME280;48555;50.952;-0.120;2023-04-16T06:30:25;102071.78;;;11.01;79.63
61394;BME280;48555;50.952;-0.120;2023-04-16T06:32:51;102064.59;;;11.05;79.57
61394;BME280;48555;50.952;-0.120;2023-04-16T06:35:17;102062.50;;;11.11;79.54
61394;BME280;48555;50.952;-0.120;2023-04-16T06:37:44;102071.56;;;11.22;79.47
61394;BME280;48555;50.952;-0.120;2023-04-16T06:40:10;102073.88;;;11.28;79.40
61394;BME280;48555;50.952;-0.120;2023-04-16T06:42:36;102071.06;;;11.31;79.44
61394;BME280;48555;50.952;-0.120;2023-04-16T06:45:01;102067.97;;;11.40;79.24
61394;BME280;48555;50.952;-0.120;2023-04-16T06:47:27;102071.09;;;11.47;79.19
61394;BME280;48555;50.952;-0.120;2023-04-16T06:49:52;102077.53;;;11.57;79.22
61394;BME280;48555;50.952;-0.120;2023-04-16T06:52:17;102079.22;;;11.58;78.70
61394;BME280;48555;50.952;-0.120;2023-04-16T06:54:43;102076.34;;;11.63;78.66
61394;BME280;48555;50.952;-0.120;2023-04-16T06:57:08;102088.94;;;11.72;78.72
61394;BME280;48555;50.952;-0.120;2023-04-16T06:59:33;102070.50;;;11.73;78.75
61394;BME280;48555;50.952;-0.120;2023-04-16T07:01:59;102079.91;;;11.93;78.56
61394;BME280;48555;50.952;-0.120;2023-04-16T07:04:24;102083.63;;;12.05;78.61
61394;BME280;48555;50.952;-0.120;2023-04-16T07:06:50;102082.00;;;12.18;78.39
61394;BME280;48555;50.952;-0.120;2023-04-16T07:09:15;102084.09;;;12.27;78.17
61394;BME280;48555;50.952;-0.120;2023-04-16T07:11:42;102089.66;;;12.37;77.98
61394;BME280;48555;50.952;-0.120;2023-04-16T07:14:08;102088.22;;;12.47;77.75
61394;BME280;48555;50.952;-0.120;2023-04-16T07:16:33;102093.75;;;12.57;77.23
61394;BME280;48555;50.952;-0.120;2023-04-16T07:18:58;102094.16;;;12.65;76.88
61394;BME280;48555;50.952;-0.120;2023-04-16T07:21:24;102102.31;;;12.75;76.36
61394;BME280;48555;50.952;-0.120;2023-04-16T07:23:50;102096.69;;;12.81;76.14
61394;BME280;48555;50.952;-0.120;2023-04-16T07:26:15;102097.00;;;12.91;75.73
61394;BME280;48555;50.952;-0.120;2023-04-16T07:28:40;102094.03;;;12.97;75.29
61394;BME280;48555;50.952;-0.120;2023-04-16T07:31:06;102093.66;;;13.03;74.93
61394;BME280;48555;50.952;-0.120;2023-04-16T07:33:32;102093.09;;;13.12;74.47
61394;BME280;48555;50.952;-0.120;2023-04-16T07:35:57;102082.41;;;13.15;74.00
61394;BME280;48555;50.952;-0.120;2023-04-16T07:38:23;102089.56;;;13.28;73.68
61394;BME280;48555;50.952;-0.120;2023-04-16T07:40:48;102091.53;;;13.38;73.77
61394;BME280;48555;50.952;-0.120;2023-04-16T07:43:14;102097.13;;;13.47;73.11
61394;BME280;48555;50.952;-0.120;2023-04-16T07:45:40;102099.53;;;13.64;73.22
61394;BME280;48555;50.952;-0.120;2023-04-16T07:48:06;102095.28;;;13.76;72.85
61394;BME280;48555;50.952;-0.120;2023-04-16T07:50:32;102093.88;;;13.84;72.28
61394;BME280;48555;50.952;-0.120;2023-04-16T07:52:57;102088.88;;;13.94;72.34
61394;BME280;48555;50.952;-0.120;2023-04-16T07:55:22;102100.91;;;14.11;71.85
61394;BME280;48555;50.952;-0.120;2023-04-16T07:57:48;102096.84;;;14.20;71.19
61394;BME280;48555;50.952;-0.120;2023-04-16T08:00:13;102104.59;;;14.36;70.80
61394;BME280;48555;50.952;-0.120;2023-04-16T08:02:39;102114.41;;;14.46;70.05
61394;BME280;48555;50.952;-0.120;2023-04-16T08:05:05;102104.03;;;14.58;69.74
61394;BME280;48555;50.952;-0.120;2023-04-16T08:07:30;102105.00;;;14.69;69.28
61394;BME280;48555;50.952;-0.120;2023-04-16T08:09:56;102112.06;;;14.82;68.70
61394;BME280;48555;50.952;-0.120;2023-04-16T08:12:21;102111.00;;;14.97;68.39
61394;BME280;48555;50.952;-0.120;2023-04-16T08:14:47;102107.13;;;15.15;68.12
61394;BME280;48555;50.952;-0.120;2023-04-16T08:17:15;102106.69;;;15.34;67.83
61394;BME280;48555;50.952;-0.120;2023-04-16T08:19:41;102111.50;;;15.53;67.13
61394;BME280;48555;50.952;-0.120;2023-04-16T08:22:08;102110.00;;;15.75;66.68
61394;BME280;48555;50.952;-0.120;2023-04-16T08:24:33;102115.53;;;15.96;65.97
61394;BME280;48555;50.952;-0.120;2023-04-16T08:26:58;102120.19;;;16.16;65.24
61394;BME280;48555;50.952;-0.120;2023-04-16T08:29:24;102117.88;;;16.35;64.53
61394;BME280;48555;50.952;-0.120;2023-04-16T08:31:51;102110.25;;;16.55;63.39
61394;BME280;48555;50.952;-0.120;2023-04-16T08:34:16;102120.94;;;16.77;62.44
61394;BME280;48555;50.952;-0.120;2023-04-16T08:36:42;102111.59;;;16.96;61.55
61394;BME280;48555;50.952;-0.120;2023-04-16T08:39:07;102119.06;;;17.13;60.90
61394;BME280;48555;50.952;-0.120;2023-04-16T08:41:33;102115.19;;;17.29;60.52
61394;BME280;48555;50.952;-0.120;2023-04-16T08:44:06;102119.75;;;17.49;59.85
61394;BME280;48555;50.952;-0.120;2023-04-16T08:46:32;102116.88;;;17.63;59.14
61394;BME280;48555;50.952;-0.120;2023-04-16T08:49:01;102124.34;;;17.81;58.97
61394;BME280;48555;50.952;-0.120;2023-04-16T08:51:33;102119.72;;;17.94;58.07
61394;BME280;48555;50.952;-0.120;2023-04-16T08:54:02;102115.00;;;18.09;57.79
61394;BME280;48555;50.952;-0.120;2023-04-16T08:56:30;102111.47;;;18.20;57.06
61394;BME280;48555;50.952;-0.120;2023-04-16T08:58:56;102116.09;;;18.38;56.52
61394;BME280;48555;50.952;-0.120;2023-04-16T09:01:23;102111.59;;;18.50;56.20
61394;BME280;48555;50.952;-0.120;2023-04-16T09:03:49;102115.13;;;18.60;55.38
61394;BME280;48555;50.952;-0.120;2023-04-16T09:06:16;102118.47;;;18.74;55.09
61394;BME280;48555;50.952;-0.120;2023-04-16T09:08:44;102125.78;;;18.91;54.88
61394;BME280;48555;50.952;-0.120;2023-04-16T09:11:12;102125.47;;;19.05;54.33
61394;BME280;48555;50.952;-0.120;2023-04-16T09:13:37;102126.09;;;19.19;53.13
61394;BME280;48555;50.952;-0.120;2023-04-16T09:16:05;102114.97;;;19.25;52.88
61394;BME280;48555;50.952;-0.120;2023-04-16T09:18:31;102131.06;;;19.43;52.33
61394;BME280;48555;50.952;-0.120;2023-04-16T09:20:56;102132.81;;;19.54;52.10
61394;BME280;48555;50.952;-0.120;2023-04-16T09:23:22;102130.16;;;19.63;51.57
61394;BME280;48555;50.952;-0.120;2023-04-16T09:25:47;102134.16;;;19.79;51.62
61394;BME280;48555;50.952;-0.120;2023-04-16T09:28:42;102134.31;;;19.87;50.30
61394;BME280;48555;50.952;-0.120;2023-04-16T09:31:18;102138.63;;;19.88;49.95
61394;BME280;48555;50.952;-0.120;2023-04-16T09:34:00;102139.34;;;19.90;49.44
61394;BME280;48555;50.952;-0.120;2023-04-16T09:36:26;102138.13;;;20.04;49.13
61394;BME280;48555;50.952;-0.120;2023-04-16T09:38:52;102135.75;;;20.10;48.94
61394;BME280;48555;50.952;-0.120;2023-04-16T09:41:18;102135.91;;;20.18;48.33
61394;BME280;48555;50.952;-0.120;2023-04-16T09:43:58;102145.25;;;20.23;47.90
61394;BME280;48555;50.952;-0.120;2023-04-16T09:46:33;102136.16;;;20.25;47.71
61394;BME280;48555;50.952;-0.120;2023-04-16T09:49:07;102142.88;;;20.29;47.26
61394;BME280;48555;50.952;-0.120;2023-04-16T09:51:39;102143.72;;;20.30;46.80
61394;BME280;48555;50.952;-0.120;2023-04-16T09:54:04;102140.78;;;20.33;46.38
61394;BME280;48555;50.952;-0.120;2023-04-16T09:56:30;102141.63;;;20.43;46.45
61394;BME280;48555;50.952;-0.120;2023-04-16T09:58:58;102142.03;;;20.48;46.59
61394;BME280;48555;50.952;-0.120;2023-04-16T10:01:24;102145.69;;;20.47;45.02
61394;BME280;48555;50.952;-0.120;2023-04-16T10:03:53;102147.47;;;20.47;44.26
61394;BME280;48555;50.952;-0.120;2023-04-16T10:06:21;102150.84;;;20.49;42.82
61394;BME280;48555;50.952;-0.120;2023-04-16T10:08:53;102147.19;;;20.50;42.03
61394;BME280;48555;50.952;-0.120;2023-04-16T10:11:22;102149.19;;;20.48;41.53
61394;BME280;48555;50.952;-0.120;2023-04-16T10:13:48;102142.06;;;20.38;39.79
61394;BME280;48555;50.952;-0.120;2023-04-16T10:16:14;102141.91;;;20.30;40.15
61394;BME280;48555;50.952;-0.120;2023-04-16T10:18:44;102145.53;;;20.29;41.06
61394;BME280;48555;50.952;-0.120;2023-04-16T10:21:10;102145.53;;;20.19;40.06
61394;BME280;48555;50.952;-0.120;2023-04-16T10:23:38;102147.06;;;20.12;39.72
61394;BME280;48555;50.952;-0.120;2023-04-16T10:26:04;102151.94;;;20.07;40.92
61394;BME280;48555;50.952;-0.120;2023-04-16T10:28:30;102138.94;;;20.04;40.94
61394;BME280;48555;50.952;-0.120;2023-04-16T10:31:00;102149.41;;;20.06;41.70
61394;BME280;48555;50.952;-0.120;2023-04-16T10:33:27;102149.41;;;20.06;42.18
61394;BME280;48555;50.952;-0.120;2023-04-16T10:36:13;102148.84;;;20.02;42.67
61394;BME280;48555;50.952;-0.120;2023-04-16T10:38:44;102146.34;;;20.01;42.14
61394;BME280;48555;50.952;-0.120;2023-04-16T10:41:10;102135.16;;;19.97;41.56
61394;BME280;48555;50.952;-0.120;2023-04-16T10:43:41;102140.88;;;19.92;41.97
61394;BME280;48555;50.952;-0.120;2023-04-16T10:46:24;102141.00;;;19.91;42.50
61394;BME280;48555;50.952;-0.120;2023-04-16T10:48:54;102143.38;;;19.94;42.85
61394;BME280;48555;50.952;-0.120;2023-04-16T10:51:30;102141.00;;;19.91;42.94
61394;BME280;48555;50.952;-0.120;2023-04-16T10:54:01;102135.97;;;19.88;42.48
61394;BME280;48555;50.952;-0.120;2023-04-16T10:56:30;102139.44;;;19.79;42.73
61394;BME280;48555;50.952;-0.120;2023-04-16T10:58:55;102134.41;;;19.76;42.99
61394;BME280;48555;50.952;-0.120;2023-04-16T11:01:33;102133.47;;;19.77;42.89
61394;BME280;48555;50.952;-0.120;2023-04-16T11:04:00;102128.00;;;19.78;42.85
61394;BME280;48555;50.952;-0.120;2023-04-16T11:06:28;102131.50;;;19.79;43.01
61394;BME280;48555;50.952;-0.120;2023-04-16T11:08:54;102130.66;;;19.78;43.03
61394;BME280;48555;50.952;-0.120;2023-04-16T11:11:19;102130.25;;;19.83;43.49
61394;BME280;48555;50.952;-0.120;2023-04-16T11:13:45;102125.06;;;19.81;43.02
61394;BME280;48555;50.952;-0.120;2023-04-16T11:16:12;102112.63;;;19.72;42.73
61394;BME280;48555;50.952;-0.120;2023-04-16T11:18:38;102132.63;;;19.86;43.14
61394;BME280;48555;50.952;-0.120;2023-04-16T11:21:08;102128.72;;;19.90;43.34
61394;BME280;48555;50.952;-0.120;2023-04-16T11:23:51;102131.78;;;19.85;42.75
61394;BME280;48555;50.952;-0.120;2023-04-16T11:26:24;102135.97;;;19.88;43.04
61394;BME280;48555;50.952;-0.120;2023-04-16T11:28:51;102121.88;;;19.87;42.65
61394;BME280;48555;50.952;-0.120;2023-04-16T11:31:16;102131.78;;;19.85;41.86
61394;BME280;48555;50.952;-0.120;2023-04-16T11:33:42;102130.09;;;19.84;42.38
61394;BME280;48555;50.952;-0.120;2023-04-16T11:36:07;102134.44;;;19.85;42.61
61394;BME280;48555;50.952;-0.120;2023-04-16T11:38:36;102128.72;;;19.90;42.94
61394;BME280;48555;50.952;-0.120;2023-04-16T11:41:02;102130.38;;;19.91;42.64
61394;BME280;48555;50.952;-0.120;2023-04-16T11:43:28;102126.22;;;19.88;41.92
61394;BME280;48555;50.952;-0.120;2023-04-16T11:46:01;102129.72;;;19.89;42.52
61394;BME280;48555;50.952;-0.120;2023-04-16T11:48:50;102131.38;;;19.90;42.56
61394;BME280;48555;50.952;-0.120;2023-04-16T11:51:16;102134.03;;;19.90;42.09
61394;BME280;48555;50.952;-0.120;2023-04-16T11:53:50;102130.66;;;19.88;42.08
61394;BME280;48555;50.952;-0.120;2023-04-16T11:56:29;102130.94;;;19.85;41.93
61394;BME280;48555;50.952;-0.120;2023-04-16T11:59:12;102135.56;;;19.83;41.62
61394;BME280;48555;50.952;-0.120;2023-04-16T12:01:39;102124.34;;;19.79;41.21
61394;BME280;48555;50.952;-0.120;2023-04-16T12:04:05;102120.59;;;19.72;40.86
61394;BME280;48555;50.952;-0.120;2023-04-16T12:06:31;102117.50;;;19.67;41.26
61394;BME280;48555;50.952;-0.120;2023-04-16T12:08:57;102126.00;;;19.70;41.85
61394;BME280;48555;50.952;-0.120;2023-04-16T12:11:41;102115.28;;;19.72;42.50
61394;BME280;48555;50.952;-0.120;2023-04-16T12:14:10;102126.34;;;19.77;42.30
61394;BME280;48555;50.952;-0.120;2023-04-16T12:16:36;102121.59;;;19.81;42.41
61394;BME280;48555;50.952;-0.120;2023-04-16T12:19:03;102125.91;;;19.82;41.96
61394;BME280;48555;50.952;-0.120;2023-04-16T12:21:42;102123.53;;;19.79;42.18
61394;BME280;48555;50.952;-0.120;2023-04-16T12:24:10;102120.59;;;19.72;43.01
61394;BME280;48555;50.952;-0.120;2023-04-16T12:29:19;102120.38;;;19.64;44.19
61394;BME280;48555;50.952;-0.120;2023-04-16T12:31:46;102119.31;;;19.66;44.07
61394;BME280;48555;50.952;-0.120;2023-04-16T12:34:12;102121.41;;;19.72;43.68
61394;BME280;48555;50.952;-0.120;2023-04-16T12:36:39;102124.34;;;19.79;43.69
61394;BME280;48555;50.952;-0.120;2023-04-16T12:39:04;102117.00;;;19.83;43.66
61394;BME280;48555;50.952;-0.120;2023-04-16T12:41:30;102121.16;;;19.85;44.11